Wainwright, Alaska
Current Conditions -  °F | °C
As of 6:53 PM on Wednesday 26 Nov 2014 (Local Time) from PAWI Reporting Station
Clear Clear  
Wind Chill: -31°   Ceiling: Unl
Heat Index: -11°   Visibility: 10mi
Dew Point: -17°   Wind: 12mph
Humidity: 75%   Direction: 90°E
Pressure: 30.39"   Gusts: NA
Location:  70.64°N, 160.04°W
Report Text: PAWI 270353Z AUTO 09010KT 10SM CLR M24/M27 A3039 RMK SLP291 T12391272 TSNO VIA AUTODIAL
Loading
Personal Weather Stations






























Interactive Weather Map New forecast layout! Learn more

10-Day Weather Forecast

Advertisements
Track Severe Weather on mobile